sensor_id;sensor_type;location;lat;lon;timestamp;P1;durP1;ratioP1;P2;durP2;ratioP2
79460;SDS011;68929;42.666;23.324;2023-06-19T00:02:00;5.85;;;4.72;;
79460;SDS011;68929;42.666;23.324;2023-06-19T00:04:26;5.72;;;5.22;;
79460;SDS011;68929;42.666;23.324;2023-06-19T00:06:52;6.20;;;5.10;;
79460;SDS011;68929;42.666;23.324;2023-06-19T00:09:17;6.97;;;5.13;;
79460;SDS011;68929;42.666;23.324;2023-06-19T00:11:43;6.85;;;5.40;;
79460;SDS011;68929;42.666;23.324;2023-06-19T00:14:09;7.90;;;5.45;;
79460;SDS011;68929;42.666;23.324;2023-06-19T00:16:34;5.68;;;5.18;;
79460;SDS011;68929;42.666;23.324;2023-06-19T00:18:59;5.95;;;5.20;;
79460;SDS011;68929;42.666;23.324;2023-06-19T00:21:25;10.05;;;5.90;;
79460;SDS011;68929;42.666;23.324;2023-06-19T00:23:51;7.63;;;5.45;;
79460;SDS011;68929;42.666;23.324;2023-06-19T00:26:17;5.60;;;5.00;;
79460;SDS011;68929;42.666;23.324;2023-06-19T00:28:43;6.15;;;5.53;;
79460;SDS011;68929;42.666;23.324;2023-06-19T00:31:10;6.55;;;5.25;;
79460;SDS011;68929;42.666;23.324;2023-06-19T00:33:38;5.88;;;5.28;;
79460;SDS011;68929;42.666;23.324;2023-06-19T00:36:08;7.15;;;5.90;;
79460;SDS011;68929;42.666;23.324;2023-06-19T00:38:34;8.43;;;5.82;;
79460;SDS011;68929;42.666;23.324;2023-06-19T00:41:00;7.72;;;5.68;;
79460;SDS011;68929;42.666;23.324;2023-06-19T00:43:26;8.27;;;5.78;;
79460;SDS011;68929;42.666;23.324;2023-06-19T00:45:51;5.78;;;5.25;;
79460;SDS011;68929;42.666;23.324;2023-06-19T00:48:16;5.15;;;4.65;;
79460;SDS011;68929;42.666;23.324;2023-06-19T00:50:42;5.72;;;5.22;;
79460;SDS011;68929;42.666;23.324;2023-06-19T00:53:07;5.85;;;5.32;;
79460;SDS011;68929;42.666;23.324;2023-06-19T00:55:33;8.48;;;5.95;;
79460;SDS011;68929;42.666;23.324;2023-06-19T00:57:59;5.80;;;5.28;;
79460;SDS011;68929;42.666;23.324;2023-06-19T01:00:25;6.07;;;5.55;;
79460;SDS011;68929;42.666;23.324;2023-06-19T01:02:51;6.55;;;5.50;;
79460;SDS011;68929;42.666;23.324;2023-06-19T01:05:16;9.85;;;5.82;;
79460;SDS011;68929;42.666;23.324;2023-06-19T01:10:19;5.70;;;5.15;;
79460;SDS011;68929;42.666;23.324;2023-06-19T01:12:56;6.28;;;5.70;;
79460;SDS011;68929;42.666;23.324;2023-06-19T01:15:27;5.57;;;5.07;;
79460;SDS011;68929;42.666;23.324;2023-06-19T01:17:54;5.95;;;5.38;;
79460;SDS011;68929;42.666;23.324;2023-06-19T01:20:22;6.57;;;5.55;;
79460;SDS011;68929;42.666;23.324;2023-06-19T01:22:48;6.40;;;5.80;;
79460;SDS011;68929;42.666;23.324;2023-06-19T01:25:13;6.55;;;5.72;;
79460;SDS011;68929;42.666;23.324;2023-06-19T01:27:38;5.80;;;5.30;;
79460;SDS011;68929;42.666;23.324;2023-06-19T01:30:05;6.20;;;5.60;;
79460;SDS011;68929;42.666;23.324;2023-06-19T01:32:44;6.28;;;5.68;;
79460;SDS011;68929;42.666;23.324;2023-06-19T01:35:19;5.95;;;5.45;;
79460;SDS011;68929;42.666;23.324;2023-06-19T01:37:47;6.45;;;5.88;;
79460;SDS011;68929;42.666;23.324;2023-06-19T01:40:14;5.40;;;4.90;;
79460;SDS011;68929;42.666;23.324;2023-06-19T01:42:41;6.57;;;5.90;;
79460;SDS011;68929;42.666;23.324;2023-06-19T01:45:08;7.65;;;5.65;;
79460;SDS011;68929;42.666;23.324;2023-06-19T01:47:33;6.05;;;5.53;;
79460;SDS011;68929;42.666;23.324;2023-06-19T01:50:00;6.47;;;5.88;;
79460;SDS011;68929;42.666;23.324;2023-06-19T01:52:25;7.53;;;5.65;;
79460;SDS011;68929;42.666;23.324;2023-06-19T01:54:51;6.75;;;5.75;;
79460;SDS011;68929;42.666;23.324;2023-06-19T01:57:17;6.18;;;5.60;;
79460;SDS011;68929;42.666;23.324;2023-06-19T01:59:43;6.63;;;5.43;;
79460;SDS011;68929;42.666;23.324;2023-06-19T02:02:09;6.55;;;5.25;;
79460;SDS011;68929;42.666;23.324;2023-06-19T02:04:35;6.15;;;5.55;;
79460;SDS011;68929;42.666;23.324;2023-06-19T02:07:01;6.38;;;5.55;;
79460;SDS011;68929;42.666;23.324;2023-06-19T02:09:26;7.10;;;6.22;;
79460;SDS011;68929;42.666;23.324;2023-06-19T02:11:51;5.68;;;5.22;;
79460;SDS011;68929;42.666;23.324;2023-06-19T02:14:17;6.60;;;6.00;;
79460;SDS011;68929;42.666;23.324;2023-06-19T02:16:42;6.57;;;5.78;;
79460;SDS011;68929;42.666;23.324;2023-06-19T02:19:12;8.10;;;6.30;;
79460;SDS011;68929;42.666;23.324;2023-06-19T02:21:37;6.13;;;5.53;;
79460;SDS011;68929;42.666;23.324;2023-06-19T02:24:04;6.13;;;5.53;;
79460;SDS011;68929;42.666;23.324;2023-06-19T02:26:30;6.30;;;5.80;;
79460;SDS011;68929;42.666;23.324;2023-06-19T02:28:55;8.48;;;5.60;;
79460;SDS011;68929;42.666;23.324;2023-06-19T02:31:21;6.40;;;5.78;;
79460;SDS011;68929;42.666;23.324;2023-06-19T02:33:47;7.32;;;6.63;;
79460;SDS011;68929;42.666;23.324;2023-06-19T02:36:13;6.70;;;6.03;;
79460;SDS011;68929;42.666;23.324;2023-06-19T02:38:43;6.03;;;5.53;;
79460;SDS011;68929;42.666;23.324;2023-06-19T02:41:08;7.10;;;6.10;;
79460;SDS011;68929;42.666;23.324;2023-06-19T02:43:34;6.70;;;6.10;;
79460;SDS011;68929;42.666;23.324;2023-06-19T02:45:59;7.70;;;5.90;;
79460;SDS011;68929;42.666;23.324;2023-06-19T02:48:24;10.00;;;6.45;;
79460;SDS011;68929;42.666;23.324;2023-06-19T02:50:50;6.78;;;6.00;;
79460;SDS011;68929;42.666;23.324;2023-06-19T02:53:15;7.15;;;6.55;;
79460;SDS011;68929;42.666;23.324;2023-06-19T02:55:41;9.27;;;7.05;;
79460;SDS011;68929;42.666;23.324;2023-06-19T02:58:07;7.43;;;6.30;;
79460;SDS011;68929;42.666;23.324;2023-06-19T03:00:32;7.97;;;7.10;;
79460;SDS011;68929;42.666;23.324;2023-06-19T03:02:57;9.00;;;7.00;;
79460;SDS011;68929;42.666;23.324;2023-06-19T03:05:24;7.68;;;6.88;;
79460;SDS011;68929;42.666;23.324;2023-06-19T03:07:51;8.80;;;7.07;;
79460;SDS011;68929;42.666;23.324;2023-06-19T03:10:17;9.80;;;7.38;;
79460;SDS011;68929;42.666;23.324;2023-06-19T03:12:42;10.35;;;7.32;;
79460;SDS011;68929;42.666;23.324;2023-06-19T03:15:07;8.02;;;7.18;;
79460;SDS011;68929;42.666;23.324;2023-06-19T03:17:33;7.80;;;6.95;;
79460;SDS011;68929;42.666;23.324;2023-06-19T03:19:58;8.57;;;7.72;;
79460;SDS011;68929;42.666;23.324;2023-06-19T03:22:24;8.43;;;7.63;;
79460;SDS011;68929;42.666;23.324;2023-06-19T03:24:49;9.57;;;7.65;;
79460;SDS011;68929;42.666;23.324;2023-06-19T03:27:15;9.02;;;7.60;;
79460;SDS011;68929;42.666;23.324;2023-06-19T03:29:40;8.18;;;7.15;;
79460;SDS011;68929;42.666;23.324;2023-06-19T03:32:05;7.95;;;7.15;;
79460;SDS011;68929;42.666;23.324;2023-06-19T03:34:31;8.35;;;6.53;;
79460;SDS011;68929;42.666;23.324;2023-06-19T03:36:56;7.70;;;7.00;;
79460;SDS011;68929;42.666;23.324;2023-06-19T03:39:22;8.95;;;7.40;;
79460;SDS011;68929;42.666;23.324;2023-06-19T03:41:48;9.93;;;7.18;;
79460;SDS011;68929;42.666;23.324;2023-06-19T03:44:13;7.95;;;7.13;;
79460;SDS011;68929;42.666;23.324;2023-06-19T03:46:38;6.43;;;5.80;;
79460;SDS011;68929;42.666;23.324;2023-06-19T03:49:04;12.90;;;9.45;;
79460;SDS011;68929;42.666;23.324;2023-06-19T03:51:29;8.15;;;6.75;;
79460;SDS011;68929;42.666;23.324;2023-06-19T03:53:55;6.80;;;6.20;;
79460;SDS011;68929;42.666;23.324;2023-06-19T03:56:20;8.60;;;6.72;;
79460;SDS011;68929;42.666;23.324;2023-06-19T03:58:46;8.18;;;6.80;;
79460;SDS011;68929;42.666;23.324;2023-06-19T04:01:11;8.20;;;6.32;;
79460;SDS011;68929;42.666;23.324;2023-06-19T04:03:37;7.68;;;6.88;;
79460;SDS011;68929;42.666;23.324;2023-06-19T04:06:02;5.75;;;5.25;;
79460;SDS011;68929;42.666;23.324;2023-06-19T04:08:27;7.85;;;6.50;;
79460;SDS011;68929;42.666;23.324;2023-06-19T04:10:53;9.25;;;6.63;;
79460;SDS011;68929;42.666;23.324;2023-06-19T04:13:18;11.40;;;6.40;;
79460;SDS011;68929;42.666;23.324;2023-06-19T04:15:44;7.70;;;6.07;;
79460;SDS011;68929;42.666;23.324;2023-06-19T04:18:09;8.70;;;6.63;;
79460;SDS011;68929;42.666;23.324;2023-06-19T04:20:35;8.80;;;6.65;;
79460;SDS011;68929;42.666;23.324;2023-06-19T04:23:00;7.20;;;6.50;;
79460;SDS011;68929;42.666;23.324;2023-06-19T04:25:26;7.50;;;6.75;;
79460;SDS011;68929;42.666;23.324;2023-06-19T04:27:51;11.35;;;6.70;;
79460;SDS011;68929;42.666;23.324;2023-06-19T04:30:16;7.50;;;6.28;;
79460;SDS011;68929;42.666;23.324;2023-06-19T04:32:42;5.85;;;5.28;;
79460;SDS011;68929;42.666;23.324;2023-06-19T04:35:10;5.93;;;5.32;;
79460;SDS011;68929;42.666;23.324;2023-06-19T04:37:35;9.05;;;6.78;;
79460;SDS011;68929;42.666;23.324;2023-06-19T04:40:01;6.22;;;5.63;;
79460;SDS011;68929;42.666;23.324;2023-06-19T04:42:28;8.77;;;6.07;;
79460;SDS011;68929;42.666;23.324;2023-06-19T04:44:54;7.22;;;6.32;;
79460;SDS011;68929;42.666;23.324;2023-06-19T04:47:22;8.27;;;5.72;;
79460;SDS011;68929;42.666;23.324;2023-06-19T04:49:48;9.88;;;6.15;;
79460;SDS011;68929;42.666;23.324;2023-06-19T04:52:14;7.53;;;5.90;;
79460;SDS011;68929;42.666;23.324;2023-06-19T04:54:39;8.13;;;6.22;;
79460;SDS011;68929;42.666;23.324;2023-06-19T04:57:05;10.30;;;6.00;;
79460;SDS011;68929;42.666;23.324;2023-06-19T04:59:32;4.68;;;4.28;;
79460;SDS011;68929;42.666;23.324;2023-06-19T05:01:58;8.07;;;5.85;;
79460;SDS011;68929;42.666;23.324;2023-06-19T05:04:32;5.57;;;5.07;;
79460;SDS011;68929;42.666;23.324;2023-06-19T05:06:58;6.53;;;5.72;;
79460;SDS011;68929;42.666;23.324;2023-06-19T05:09:24;5.55;;;5.05;;
79460;SDS011;68929;42.666;23.324;2023-06-19T05:11:50;8.70;;;5.35;;
79460;SDS011;68929;42.666;23.324;2023-06-19T05:14:18;6.28;;;5.38;;
79460;SDS011;68929;42.666;23.324;2023-06-19T05:16:48;5.97;;;5.35;;
79460;SDS011;68929;42.666;23.324;2023-06-19T05:19:13;6.93;;;5.60;;
79460;SDS011;68929;42.666;23.324;2023-06-19T05:21:38;7.20;;;4.97;;
79460;SDS011;68929;42.666;23.324;2023-06-19T05:24:08;7.38;;;5.57;;
79460;SDS011;68929;42.666;23.324;2023-06-19T05:26:33;6.00;;;5.45;;
79460;SDS011;68929;42.666;23.324;2023-06-19T05:28:59;8.07;;;5.85;;
79460;SDS011;68929;42.666;23.324;2023-06-19T05:31:24;7.38;;;5.22;;
79460;SDS011;68929;42.666;23.324;2023-06-19T05:33:50;6.00;;;5.13;;
79460;SDS011;68929;42.666;23.324;2023-06-19T05:36:15;5.75;;;4.90;;
79460;SDS011;68929;42.666;23.324;2023-06-19T05:38:40;7.28;;;5.50;;
79460;SDS011;68929;42.666;23.324;2023-06-19T05:41:06;8.90;;;5.85;;
79460;SDS011;68929;42.666;23.324;2023-06-19T05:43:35;6.00;;;5.40;;
79460;SDS011;68929;42.666;23.324;2023-06-19T05:46:00;8.02;;;5.47;;
79460;SDS011;68929;42.666;23.324;2023-06-19T05:48:27;6.45;;;5.75;;
79460;SDS011;68929;42.666;23.324;2023-06-19T05:50:52;6.00;;;5.50;;
79460;SDS011;68929;42.666;23.324;2023-06-19T05:53:18;7.80;;;5.38;;
79460;SDS011;68929;42.666;23.324;2023-06-19T05:55:48;9.18;;;5.55;;
79460;SDS011;68929;42.666;23.324;2023-06-19T05:58:22;6.53;;;5.40;;
79460;SDS011;68929;42.666;23.324;2023-06-19T06:00:49;6.45;;;5.47;;
79460;SDS011;68929;42.666;23.324;2023-06-19T06:03:14;5.43;;;4.53;;
79460;SDS011;68929;42.666;23.324;2023-06-19T06:05:40;7.43;;;5.07;;
79460;SDS011;68929;42.666;23.324;2023-06-19T06:08:05;8.00;;;5.22;;
79460;SDS011;68929;42.666;23.324;2023-06-19T06:10:36;5.88;;;5.25;;
79460;SDS011;68929;42.666;23.324;2023-06-19T06:13:02;5.97;;;5.07;;
79460;SDS011;68929;42.666;23.324;2023-06-19T06:15:28;6.72;;;5.60;;
79460;SDS011;68929;42.666;23.324;2023-06-19T06:17:54;5.88;;;5.28;;
79460;SDS011;68929;42.666;23.324;2023-06-19T06:20:31;7.32;;;5.07;;
79460;SDS011;68929;42.666;23.324;2023-06-19T06:22:56;6.30;;;5.22;;
79460;SDS011;68929;42.666;23.324;2023-06-19T06:25:22;10.95;;;5.78;;
79460;SDS011;68929;42.666;23.324;2023-06-19T06:27:47;7.15;;;5.50;;
79460;SDS011;68929;42.666;23.324;2023-06-19T06:30:14;7.53;;;5.53;;
79460;SDS011;68929;42.666;23.324;2023-06-19T06:32:39;5.95;;;5.45;;
79460;SDS011;68929;42.666;23.324;2023-06-19T06:35:05;8.60;;;5.68;;
79460;SDS011;68929;42.666;23.324;2023-06-19T06:37:34;6.47;;;5.43;;
79460;SDS011;68929;42.666;23.324;2023-06-19T06:40:00;5.85;;;5.35;;
79460;SDS011;68929;42.666;23.324;2023-06-19T06:42:25;8.35;;;5.57;;
79460;SDS011;68929;42.666;23.324;2023-06-19T06:44:51;7.93;;;5.65;;
79460;SDS011;68929;42.666;23.324;2023-06-19T06:47:16;5.60;;;5.07;;
79460;SDS011;68929;42.666;23.324;2023-06-19T06:49:42;5.22;;;4.72;;
79460;SDS011;68929;42.666;23.324;2023-06-19T06:52:08;5.88;;;4.20;;
79460;SDS011;68929;42.666;23.324;2023-06-19T06:54:33;5.10;;;4.68;;
79460;SDS011;68929;42.666;23.324;2023-06-19T06:56:59;4.88;;;4.47;;
79460;SDS011;68929;42.666;23.324;2023-06-19T06:59:29;4.80;;;4.30;;
79460;SDS011;68929;42.666;23.324;2023-06-19T07:01:56;6.18;;;4.30;;
79460;SDS011;68929;42.666;23.324;2023-06-19T07:04:22;7.47;;;5.20;;
79460;SDS011;68929;42.666;23.324;2023-06-19T07:06:48;6.47;;;4.95;;
79460;SDS011;68929;42.666;23.324;2023-06-19T07:09:16;5.35;;;4.72;;
79460;SDS011;68929;42.666;23.324;2023-06-19T07:11:50;6.45;;;4.95;;
79460;SDS011;68929;42.666;23.324;2023-06-19T07:14:15;9.00;;;5.20;;
79460;SDS011;68929;42.666;23.324;2023-06-19T07:16:45;4.78;;;4.15;;
79460;SDS011;68929;42.666;23.324;2023-06-19T07:19:10;7.68;;;4.90;;
79460;SDS011;68929;42.666;23.324;2023-06-19T07:21:37;5.38;;;4.45;;
79460;SDS011;68929;42.666;23.324;2023-06-19T07:24:03;4.90;;;4.43;;
79460;SDS011;68929;42.666;23.324;2023-06-19T07:26:32;5.45;;;4.95;;
79460;SDS011;68929;42.666;23.324;2023-06-19T07:28:58;6.65;;;3.88;;
79460;SDS011;68929;42.666;23.324;2023-06-19T07:31:23;4.82;;;4.40;;
79460;SDS011;68929;42.666;23.324;2023-06-19T07:33:49;5.07;;;4.30;;
79460;SDS011;68929;42.666;23.324;2023-06-19T07:36:14;5.95;;;4.07;;
79460;SDS011;68929;42.666;23.324;2023-06-19T07:38:45;7.20;;;4.70;;
79460;SDS011;68929;42.666;23.324;2023-06-19T07:41:11;5.87;;;4.77;;
79460;SDS011;68929;42.666;23.324;2023-06-19T07:43:36;5.32;;;4.82;;
79460;SDS011;68929;42.666;23.324;2023-06-19T07:46:03;6.38;;;5.10;;
79460;SDS011;68929;42.666;23.324;2023-06-19T07:48:29;5.35;;;4.85;;
79460;SDS011;68929;42.666;23.324;2023-06-19T07:50:54;7.20;;;4.90;;
79460;SDS011;68929;42.666;23.324;2023-06-19T07:53:20;5.38;;;4.70;;
79460;SDS011;68929;42.666;23.324;2023-06-19T07:55:45;6.78;;;5.03;;
79460;SDS011;68929;42.666;23.324;2023-06-19T07:58:11;6.50;;;5.00;;
79460;SDS011;68929;42.666;23.324;2023-06-19T08:00:37;6.82;;;5.50;;
79460;SDS011;68929;42.666;23.324;2023-06-19T08:03:02;5.63;;;5.05;;
79460;SDS011;68929;42.666;23.324;2023-06-19T08:05:27;6.13;;;4.70;;
79460;SDS011;68929;42.666;23.324;2023-06-19T08:07:53;7.60;;;4.97;;
79460;SDS011;68929;42.666;23.324;2023-06-19T08:10:25;5.25;;;4.75;;
79460;SDS011;68929;42.666;23.324;2023-06-19T08:12:50;5.15;;;4.65;;
79460;SDS011;68929;42.666;23.324;2023-06-19T08:15:15;4.63;;;4.07;;
79460;SDS011;68929;42.666;23.324;2023-06-19T08:17:41;4.93;;;4.45;;
79460;SDS011;68929;42.666;23.324;2023-06-19T08:20:12;4.88;;;4.35;;
79460;SDS011;68929;42.666;23.324;2023-06-19T08:22:37;6.32;;;4.80;;
79460;SDS011;68929;42.666;23.324;2023-06-19T08:25:05;5.55;;;4.20;;
79460;SDS011;68929;42.666;23.324;2023-06-19T08:27:31;5.88;;;4.53;;
79460;SDS011;68929;42.666;23.324;2023-06-19T08:29:56;5.70;;;4.32;;
79460;SDS011;68929;42.666;23.324;2023-06-19T08:32:21;4.38;;;3.97;;
79460;SDS011;68929;42.666;23.324;2023-06-19T08:34:47;4.03;;;3.63;;
79460;SDS011;68929;42.666;23.324;2023-06-19T08:37:18;4.50;;;4.10;;
79460;SDS011;68929;42.666;23.324;2023-06-19T08:39:45;4.95;;;4.55;;
79460;SDS011;68929;42.666;23.324;2023-06-19T08:42:12;5.25;;;4.75;;
79460;SDS011;68929;42.666;23.324;2023-06-19T08:44:37;5.90;;;4.00;;
79460;SDS011;68929;42.666;23.324;2023-06-19T08:47:03;4.13;;;3.67;;
79460;SDS011;68929;42.666;23.324;2023-06-19T08:49:29;4.70;;;4.30;;
79460;SDS011;68929;42.666;23.324;2023-06-19T08:51:56;5.65;;;4.35;;
79460;SDS011;68929;42.666;23.324;2023-06-19T08:54:21;4.65;;;4.25;;
79460;SDS011;68929;42.666;23.324;2023-06-19T08:56:52;5.03;;;4.50;;
79460;SDS011;68929;42.666;23.324;2023-06-19T08:59:18;4.68;;;4.25;;
79460;SDS011;68929;42.666;23.324;2023-06-19T09:01:51;4.38;;;3.97;;
79460;SDS011;68929;42.666;23.324;2023-06-19T09:04:19;4.28;;;3.88;;
79460;SDS011;68929;42.666;23.324;2023-06-19T09:06:55;5.50;;;4.55;;
79460;SDS011;68929;42.666;23.324;2023-06-19T09:09:30;4.78;;;4.20;;
79460;SDS011;68929;42.666;23.324;2023-06-19T09:14:38;5.45;;;3.92;;
79460;SDS011;68929;42.666;23.324;2023-06-19T09:17:05;6.40;;;4.10;;
79460;SDS011;68929;42.666;23.324;2023-06-19T09:19:33;4.55;;;4.15;;
79460;SDS011;68929;42.666;23.324;2023-06-19T09:22:02;4.40;;;4.00;;
79460;SDS011;68929;42.666;23.324;2023-06-19T09:24:33;4.22;;;3.80;;
79460;SDS011;68929;42.666;23.324;2023-06-19T09:27:09;7.07;;;4.43;;
79460;SDS011;68929;42.666;23.324;2023-06-19T09:29:43;4.40;;;3.90;;
79460;SDS011;68929;42.666;23.324;2023-06-19T09:34:54;5.47;;;4.10;;
79460;SDS011;68929;42.666;23.324;2023-06-19T09:39:56;5.95;;;3.67;;
79460;SDS011;68929;42.666;23.324;2023-06-19T09:42:41;4.63;;;4.22;;
79460;SDS011;68929;42.666;23.324;2023-06-19T09:45:19;5.78;;;4.72;;
79460;SDS011;68929;42.666;23.324;2023-06-19T09:47:48;7.00;;;4.97;;
79460;SDS011;68929;42.666;23.324;2023-06-19T09:50:18;5.30;;;4.88;;
79460;SDS011;68929;42.666;23.324;2023-06-19T09:52:50;4.95;;;4.32;;
79460;SDS011;68929;42.666;23.324;2023-06-19T09:55:16;4.28;;;3.88;;
79460;SDS011;68929;42.666;23.324;2023-06-19T09:57:47;6.55;;;4.35;;
79460;SDS011;68929;42.666;23.324;2023-06-19T10:00:13;5.43;;;4.50;;
79460;SDS011;68929;42.666;23.324;2023-06-19T10:02:44;4.28;;;3.88;;
79460;SDS011;68929;42.666;23.324;2023-06-19T10:05:11;4.50;;;4.10;;
79460;SDS011;68929;42.666;23.324;2023-06-19T10:07:40;4.50;;;4.10;;
79460;SDS011;68929;42.666;23.324;2023-06-19T10:10:09;3.88;;;3.38;;
79460;SDS011;68929;42.666;23.324;2023-06-19T10:12:54;3.70;;;3.40;;
79460;SDS011;68929;42.666;23.324;2023-06-19T10:15:24;4.30;;;3.90;;
79460;SDS011;68929;42.666;23.324;2023-06-19T10:20:26;5.60;;;4.22;;
79460;SDS011;68929;42.666;23.324;2023-06-19T10:25:38;4.30;;;3.15;;
79460;SDS011;68929;42.666;23.324;2023-06-19T10:28:18;6.80;;;4.30;;
79460;SDS011;68929;42.666;23.324;2023-06-19T10:33:28;4.22;;;3.65;;
79460;SDS011;68929;42.666;23.324;2023-06-19T10:35:56;4.32;;;3.92;;
79460;SDS011;68929;42.666;23.324;2023-06-19T10:38:23;4.05;;;3.75;;
79460;SDS011;68929;42.666;23.324;2023-06-19T10:40:48;4.07;;;3.22;;
79460;SDS011;68929;42.666;23.324;2023-06-19T10:43:21;7.65;;;3.83;;
79460;SDS011;68929;42.666;23.324;2023-06-19T10:45:57;3.97;;;3.58;;
79460;SDS011;68929;42.666;23.324;2023-06-19T10:48:27;5.20;;;3.45;;
79460;SDS011;68929;42.666;23.324;2023-06-19T10:50:53;5.75;;;3.78;;
79460;SDS011;68929;42.666;23.324;2023-06-19T10:53:29;5.65;;;3.75;;
79460;SDS011;68929;42.666;23.324;2023-06-19T10:56:17;4.82;;;4.43;;
79460;SDS011;68929;42.666;23.324;2023-06-19T10:58:45;3.88;;;3.47;;
79460;SDS011;68929;42.666;23.324;2023-06-19T11:01:14;4.15;;;3.80;;
79460;SDS011;68929;42.666;23.324;2023-06-19T11:03:46;4.18;;;3.88;;
79460;SDS011;68929;42.666;23.324;2023-06-19T11:06:19;4.50;;;4.10;;
79460;SDS011;68929;42.666;23.324;2023-06-19T11:08:57;4.88;;;4.10;;
79460;SDS011;68929;42.666;23.324;2023-06-19T11:11:33;4.43;;;4.03;;
79460;SDS011;68929;42.666;23.324;2023-06-19T11:14:02;5.07;;;4.20;;
79460;SDS011;68929;42.666;23.324;2023-06-19T11:16:29;5.30;;;4.40;;
79460;SDS011;68929;42.666;23.324;2023-06-19T11:18:57;5.85;;;4.80;;
79460;SDS011;68929;42.666;23.324;2023-06-19T11:21:30;4.93;;;4.20;;
79460;SDS011;68929;42.666;23.324;2023-06-19T11:23:58;6.63;;;4.78;;
79460;SDS011;68929;42.666;23.324;2023-06-19T11:26:26;5.40;;;4.90;;
79460;SDS011;68929;42.666;23.324;2023-06-19T11:28:53;5.35;;;4.85;;
79460;SDS011;68929;42.666;23.324;2023-06-19T11:31:24;5.30;;;4.80;;
79460;SDS011;68929;42.666;23.324;2023-06-19T11:33:59;5.55;;;3.92;;
79460;SDS011;68929;42.666;23.324;2023-06-19T11:36:27;4.35;;;3.95;;
79460;SDS011;68929;42.666;23.324;2023-06-19T11:38:52;4.70;;;4.30;;
79460;SDS011;68929;42.666;23.324;2023-06-19T11:41:29;7.05;;;4.38;;
79460;SDS011;68929;42.666;23.324;2023-06-19T11:44:03;4.40;;;4.00;;
79460;SDS011;68929;42.666;23.324;2023-06-19T11:46:34;4.95;;;4.30;;
79460;SDS011;68929;42.666;23.324;2023-06-19T11:49:13;4.63;;;4.22;;
79460;SDS011;68929;42.666;23.324;2023-06-19T11:51:41;5.15;;;4.75;;
79460;SDS011;68929;42.666;23.324;2023-06-19T11:54:07;6.60;;;4.22;;
79460;SDS011;68929;42.666;23.324;2023-06-19T11:56:34;5.05;;;4.55;;
79460;SDS011;68929;42.666;23.324;2023-06-19T11:59:04;4.75;;;4.35;;
79460;SDS011;68929;42.666;23.324;2023-06-19T12:01:33;4.82;;;4.43;;
79460;SDS011;68929;42.666;23.324;2023-06-19T12:04:00;5.63;;;4.90;;
79460;SDS011;68929;42.666;23.324;2023-06-19T12:06:30;4.80;;;4.40;;
79460;SDS011;68929;42.666;23.324;2023-06-19T12:08:56;5.13;;;4.63;;
79460;SDS011;68929;42.666;23.324;2023-06-19T12:11:24;4.97;;;4.47;;
79460;SDS011;68929;42.666;23.324;2023-06-19T12:13:50;5.15;;;4.50;;
79460;SDS011;68929;42.666;23.324;2023-06-19T12:16:18;4.90;;;4.50;;
79460;SDS011;68929;42.666;23.324;2023-06-19T12:18:43;5.32;;;4.25;;
79460;SDS011;68929;42.666;23.324;2023-06-19T12:21:09;4.93;;;4.43;;
79460;SDS011;68929;42.666;23.324;2023-06-19T12:23:34;5.55;;;4.35;;
79460;SDS011;68929;42.666;23.324;2023-06-19T12:26:03;5.63;;;4.57;;
79460;SDS011;68929;42.666;23.324;2023-06-19T12:28:32;4.60;;;3.97;;
79460;SDS011;68929;42.666;23.324;2023-06-19T12:30:57;7.95;;;3.95;;
79460;SDS011;68929;42.666;23.324;2023-06-19T12:33:23;6.65;;;4.50;;
79460;SDS011;68929;42.666;23.324;2023-06-19T12:35:49;4.70;;;4.30;;
79460;SDS011;68929;42.666;23.324;2023-06-19T12:38:14;6.07;;;4.43;;
79460;SDS011;68929;42.666;23.324;2023-06-19T12:40:45;5.15;;;4.40;;
79460;SDS011;68929;42.666;23.324;2023-06-19T12:43:10;4.65;;;3.88;;
79460;SDS011;68929;42.666;23.324;2023-06-19T12:45:36;5.05;;;4.20;;
79460;SDS011;68929;42.666;23.324;2023-06-19T12:48:01;6.07;;;4.53;;
79460;SDS011;68929;42.666;23.324;2023-06-19T12:50:26;4.65;;;4.25;;
79460;SDS011;68929;42.666;23.324;2023-06-19T12:52:52;4.55;;;4.15;;
79460;SDS011;68929;42.666;23.324;2023-06-19T12:55:17;4.53;;;4.13;;
79460;SDS011;68929;42.666;23.324;2023-06-19T12:57:43;4.85;;;4.32;;
79460;SDS011;68929;42.666;23.324;2023-06-19T13:00:10;4.68;;;4.28;;
79460;SDS011;68929;42.666;23.324;2023-06-19T13:02:39;4.78;;;3.58;;
79460;SDS011;68929;42.666;23.324;2023-06-19T13:05:15;5.20;;;4.50;;
79460;SDS011;68929;42.666;23.324;2023-06-19T13:07:40;7.30;;;4.50;;
79460;SDS011;68929;42.666;23.324;2023-06-19T13:10:06;4.95;;;4.50;;
79460;SDS011;68929;42.666;23.324;2023-06-19T13:12:36;5.30;;;4.80;;
79460;SDS011;68929;42.666;23.324;2023-06-19T13:15:01;4.38;;;4.07;;
79460;SDS011;68929;42.666;23.324;2023-06-19T13:17:27;8.32;;;4.78;;
79460;SDS011;68929;42.666;23.324;2023-06-19T13:19:52;4.45;;;3.60;;
79460;SDS011;68929;42.666;23.324;2023-06-19T13:22:18;4.90;;;4.00;;
79460;SDS011;68929;42.666;23.324;2023-06-19T13:24:43;4.55;;;4.15;;
79460;SDS011;68929;42.666;23.324;2023-06-19T13:27:11;5.43;;;4.20;;
79460;SDS011;68929;42.666;23.324;2023-06-19T13:29:37;4.30;;;4.00;;
79460;SDS011;68929;42.666;23.324;2023-06-19T13:32:04;4.95;;;4.20;;
79460;SDS011;68929;42.666;23.324;2023-06-19T13:34:30;4.60;;;4.03;;
79460;SDS011;68929;42.666;23.324;2023-06-19T13:36:58;4.47;;;4.07;;
79460;SDS011;68929;42.666;23.324;2023-06-19T13:39:27;4.25;;;3.85;;
79460;SDS011;68929;42.666;23.324;2023-06-19T13:41:53;4.50;;;4.05;;
79460;SDS011;68929;42.666;23.324;2023-06-19T13:44:18;4.75;;;4.30;;
79460;SDS011;68929;42.666;23.324;2023-06-19T13:46:44;4.88;;;4.47;;
79460;SDS011;68929;42.666;23.324;2023-06-19T13:49:10;4.90;;;3.78;;
79460;SDS011;68929;42.666;23.324;2023-06-19T13:51:36;9.65;;;4.78;;
79460;SDS011;68929;42.666;23.324;2023-06-19T13:54:01;4.60;;;4.20;;
79460;SDS011;68929;42.666;23.324;2023-06-19T13:56:29;4.75;;;4.35;;
79460;SDS011;68929;42.666;23.324;2023-06-19T13:58:55;5.38;;;4.20;;
79460;SDS011;68929;42.666;23.324;2023-06-19T14:01:20;5.30;;;4.45;;
79460;SDS011;68929;42.666;23.324;2023-06-19T14:03:45;4.38;;;3.97;;
79460;SDS011;68929;42.666;23.324;2023-06-19T14:06:11;5.72;;;4.38;;
79460;SDS011;68929;42.666;23.324;2023-06-19T14:08:37;4.32;;;3.92;;
79460;SDS011;68929;42.666;23.324;2023-06-19T14:11:09;4.45;;;4.05;;
79460;SDS011;68929;42.666;23.324;2023-06-19T14:13:35;6.63;;;4.37;;
79460;SDS011;68929;42.666;23.324;2023-06-19T14:16:01;6.53;;;4.60;;
79460;SDS011;68929;42.666;23.324;2023-06-19T14:18:31;5.20;;;4.30;;
79460;SDS011;68929;42.666;23.324;2023-06-19T14:20:56;8.47;;;4.50;;
79460;SDS011;68929;42.666;23.324;2023-06-19T14:23:22;6.60;;;4.45;;
79460;SDS011;68929;42.666;23.324;2023-06-19T14:25:47;6.53;;;4.70;;
79460;SDS011;68929;42.666;23.324;2023-06-19T14:28:12;5.03;;;4.53;;
79460;SDS011;68929;42.666;23.324;2023-06-19T14:30:42;6.13;;;4.65;;
79460;SDS011;68929;42.666;23.324;2023-06-19T14:33:08;4.93;;;4.40;;
79460;SDS011;68929;42.666;23.324;2023-06-19T14:35:43;4.43;;;3.97;;
79460;SDS011;68929;42.666;23.324;2023-06-19T14:38:11;4.70;;;4.22;;
79460;SDS011;68929;42.666;23.324;2023-06-19T14:40:38;5.13;;;3.92;;
79460;SDS011;68929;42.666;23.324;2023-06-19T14:43:04;5.03;;;4.05;;
79460;SDS011;68929;42.666;23.324;2023-06-19T14:45:30;7.65;;;4.40;;
79460;SDS011;68929;42.666;23.324;2023-06-19T14:47:55;6.15;;;4.45;;
79460;SDS011;68929;42.666;23.324;2023-06-19T14:50:21;4.50;;;4.10;;
79460;SDS011;68929;42.666;23.324;2023-06-19T14:52:46;4.85;;;4.45;;